createdAt,value
2023-05-19T06:07:27.563Z,55.86
2023-05-19T06:08:31.213Z,55.71
2023-05-19T06:09:35.748Z,56.02
2023-05-19T06:10:40.908Z,56.13
2023-05-19T06:11:46.421Z,56.17
2023-05-19T06:12:51.480Z,56.27
2023-05-19T06:13:56.601Z,56.25
2023-05-19T06:15:07.029Z,56.21
2023-05-19T06:16:17.392Z,56.07
2023-05-19T06:17:24.345Z,55.91
2023-05-19T06:18:28.852Z,55.88
2023-05-19T06:19:31.930Z,55.75
2023-05-19T06:20:42.281Z,55.62
2023-05-19T06:21:47.513Z,55.67
2023-05-19T06:22:53.259Z,55.55
2023-05-19T06:23:58.255Z,55.46
2023-05-19T06:25:03.860Z,55.46
2023-05-19T06:26:06.683Z,55.35
2023-05-19T06:27:08.887Z,55.27
2023-05-19T06:28:11.282Z,55.06
2023-05-19T06:29:13.880Z,54.94
2023-05-19T06:30:19.450Z,54.90
2023-05-19T06:35:53.507Z,54.26
2023-05-19T06:36:59.184Z,53.99
2023-05-19T06:38:01.524Z,53.81
2023-05-19T06:39:04.912Z,53.73
2023-05-19T06:40:11.659Z,53.57
2023-05-19T06:41:16.839Z,53.58
2023-05-19T06:42:19.986Z,53.58
2023-05-19T06:43:26.943Z,53.62
2023-05-19T06:44:30.685Z,53.68
2023-05-19T06:45:35.346Z,53.54
2023-05-19T06:46:40.816Z,53.52
2023-05-19T06:47:45.510Z,53.36
2023-05-19T06:48:51.197Z,53.31
2023-05-19T06:49:55.377Z,53.10
2023-05-19T06:51:00.618Z,52.77
2023-05-19T06:52:06.130Z,52.53
2023-05-19T06:53:11.190Z,52.15
2023-05-19T06:54:15.622Z,52.04
2023-05-19T06:55:18.019Z,51.80
2023-05-19T06:56:22.954Z,51.57
2023-05-19T06:57:25.347Z,51.30
2023-05-19T06:58:28.302Z,51.07
2023-05-19T06:59:30.798Z,50.87
2023-05-19T07:00:37.852Z,50.66
2023-05-19T07:01:40.928Z,50.52
2023-05-19T07:02:44.011Z,50.09
2023-05-19T07:03:47.536Z,50.01
2023-05-19T07:04:50.513Z,49.59
2023-05-19T07:05:54.790Z,49.45
2023-05-19T07:06:57.613Z,49.21
2023-05-19T07:08:03.505Z,48.90
2023-05-19T07:09:05.872Z,48.77
2023-05-19T07:10:09.463Z,48.55
2023-05-19T07:11:11.752Z,48.25
2023-05-19T07:12:14.437Z,48.02
2023-05-19T07:13:16.727Z,47.92
2023-05-19T07:14:18.932Z,47.86
2023-05-19T07:15:21.966Z,47.89
2023-05-19T07:16:26.776Z,47.06
2023-05-19T07:17:32.360Z,47.32
2023-05-19T07:18:38.264Z,47.23
2023-05-19T07:19:42.487Z,47.18
2023-05-19T07:20:47.790Z,47.33
2023-05-19T07:21:50.675Z,47.46
2023-05-19T07:22:55.494Z,47.03
2023-05-19T07:24:00.204Z,47.51
2023-05-19T07:25:05.955Z,47.56
2023-05-19T07:26:09.088Z,47.58
2023-05-19T07:27:14.062Z,47.62
2023-05-19T07:28:19.127Z,47.64
2023-05-19T07:29:23.879Z,47.48
2023-05-19T07:30:30.632Z,47.14
2023-05-19T07:31:33.398Z,47.25
2023-05-19T07:32:35.828Z,47.29
2023-05-19T07:33:38.013Z,47.10
2023-05-19T07:34:42.679Z,46.87
2023-05-19T07:35:47.378Z,46.86
2023-05-19T07:36:52.854Z,46.84
2023-05-19T07:37:57.887Z,46.68
2023-05-19T07:39:02.926Z,46.30
2023-05-19T07:40:07.821Z,45.95
2023-05-19T07:41:12.734Z,45.99
2023-05-19T07:42:17.303Z,45.76
2023-05-19T07:43:22.420Z,45.73
2023-05-19T07:44:26.932Z,45.90
2023-05-19T07:45:31.723Z,46.00
2023-05-19T07:46:37.257Z,46.08
2023-05-19T07:47:39.581Z,45.97
2023-05-19T07:48:41.850Z,45.91
2023-05-19T07:49:44.238Z,46.00
2023-05-19T07:50:47.751Z,45.79
2023-05-19T07:51:50.033Z,45.46
2023-05-19T07:52:52.237Z,45.59
2023-05-19T07:53:57.196Z,45.72
2023-05-19T07:55:02.237Z,46.05
2023-05-19T07:56:04.962Z,46.00
2023-05-19T07:57:10.094Z,46.16
2023-05-19T07:58:14.706Z,46.20
2023-05-19T07:59:19.338Z,46.28
2023-05-19T08:00:24.644Z,46.08
2023-05-19T08:01:32.651Z,46.12
2023-05-19T08:02:37.619Z,46.07
2023-05-19T08:03:40.368Z,45.86
2023-05-19T08:04:45.280Z,46.04
2023-05-19T08:05:48.649Z,46.06
2023-05-19T08:06:50.920Z,46.33
2023-05-19T08:07:53.095Z,46.51
2023-05-19T08:08:58.416Z,46.64
2023-05-19T08:10:03.543Z,46.54
2023-05-19T08:11:08.281Z,46.53
2023-05-19T08:12:12.878Z,46.37
2023-05-19T08:13:18.062Z,46.33
2023-05-19T08:14:23.210Z,45.87
2023-05-19T08:15:28.266Z,45.99
2023-05-19T08:16:30.688Z,46.03
2023-05-19T08:17:35.929Z,45.74
2023-05-19T08:18:41.597Z,45.64
2023-05-19T08:19:43.997Z,45.62
2023-05-19T08:20:48.838Z,45.47
2023-05-19T08:21:51.389Z,45.27
2023-05-19T08:22:55.827Z,44.54
2023-05-19T08:23:58.259Z,44.20
2023-05-19T08:25:00.495Z,43.86
2023-05-19T08:26:05.422Z,43.58
2023-05-19T08:27:07.744Z,43.73
2023-05-19T08:28:15.052Z,43.89
2023-05-19T08:29:17.443Z,44.18
2023-05-19T08:30:23.956Z,44.35
2023-05-19T08:31:28.745Z,43.97
2023-05-19T08:32:33.946Z,43.96
2023-05-19T08:33:38.637Z,44.19
2023-05-19T08:34:43.291Z,44.36
2023-05-19T08:35:48.302Z,44.05
2023-05-19T08:36:52.756Z,43.85
2023-05-19T08:37:57.857Z,43.68
2023-05-19T08:39:00.168Z,43.50
2023-05-19T08:40:02.804Z,43.65
2023-05-19T08:45:21.304Z,43.71
2023-05-19T08:46:27.579Z,43.58
2023-05-19T08:47:30.131Z,43.66
2023-05-19T08:48:32.355Z,43.68
2023-05-19T08:49:37.315Z,43.63
2023-05-19T08:50:42.784Z,43.34
2023-05-19T08:51:51.943Z,42.84
2023-05-19T08:53:25.007Z,42.85
2023-05-19T08:54:19.186Z,43.11
2023-05-19T08:55:30.392Z,43.47
2023-05-19T08:56:35.574Z,42.89
2023-05-19T09:01:32.888Z,43.18
2023-05-19T09:02:37.303Z,43.09
2023-05-19T09:03:39.840Z,43.67
2023-05-19T09:04:42.318Z,43.75
2023-05-19T09:05:44.643Z,43.66
2023-05-19T09:06:47.404Z,43.40
2023-05-19T09:07:49.970Z,43.53
2023-05-19T09:08:54.500Z,43.62
2023-05-19T09:09:59.042Z,43.35
2023-05-19T09:11:03.625Z,43.55
2023-05-19T09:12:07.505Z,43.48
2023-05-19T09:13:10.005Z,43.65
2023-05-19T09:14:14.566Z,43.52
2023-05-19T09:15:20.204Z,43.37
2023-05-19T09:16:25.902Z,42.50
2023-05-19T09:17:31.771Z,42.48
2023-05-19T09:18:36.456Z,42.40
2023-05-19T09:20:56.440Z,41.57
2023-05-19T09:22:02.206Z,41.04
2023-05-19T09:23:07.401Z,40.84
2023-05-19T09:24:12.062Z,40.83
2023-05-19T09:26:40.011Z,40.48
2023-05-19T09:27:44.360Z,40.11
2023-05-19T09:28:49.863Z,40.01
2023-05-19T09:29:54.537Z,40.72
2023-05-19T09:31:08.173Z,41.15
2023-05-19T09:32:12.917Z,41.25
2023-05-19T09:33:22.554Z,41.31
2023-05-19T09:34:28.145Z,41.38
2023-05-19T09:35:33.381Z,41.42
2023-05-19T09:36:38.582Z,41.01
2023-05-19T09:37:43.260Z,41.42
2023-05-19T09:38:48.178Z,41.32
2023-05-19T09:39:53.423Z,41.46
2023-05-19T09:40:59.254Z,41.71
2023-05-19T09:42:06.522Z,41.21
2023-05-19T09:43:13.522Z,40.96
2023-05-19T09:45:35.092Z,40.90
2023-05-19T09:46:39.955Z,40.15
2023-05-19T09:47:45.183Z,39.37
2023-05-19T09:48:49.999Z,39.75
2023-05-19T09:49:54.690Z,40.00
2023-05-19T09:50:59.654Z,40.16
2023-05-19T09:52:06.518Z,40.49
2023-05-19T09:53:11.179Z,40.52
2023-05-19T09:54:16.422Z,40.74
2023-05-19T09:55:22.463Z,40.64
2023-05-19T09:56:27.376Z,40.59
2023-05-19T09:57:34.671Z,40.55
2023-05-19T09:58:39.883Z,40.49
2023-05-19T09:59:45.154Z,40.61
2023-05-19T10:00:50.049Z,40.51
2023-05-19T10:01:57.862Z,40.20
2023-05-19T10:03:02.234Z,40.11
2023-05-19T10:04:06.518Z,40.01
2023-05-19T10:05:16.677Z,39.57
2023-05-19T10:06:23.299Z,39.90
2023-05-19T10:07:28.413Z,39.74
2023-05-19T10:08:33.465Z,39.78
2023-05-19T10:09:38.314Z,39.62
2023-05-19T10:10:42.956Z,39.60
2023-05-19T10:11:48.104Z,39.90
2023-05-19T10:12:53.551Z,40.44
2023-05-19T10:13:58.322Z,40.45
2023-05-19T10:15:04.131Z,40.62
2023-05-19T10:16:10.434Z,40.82
2023-05-19T10:17:15.945Z,40.84
2023-05-19T10:18:21.314Z,40.76
2023-05-19T10:19:27.552Z,40.59
2023-05-19T10:20:33.100Z,40.46
2023-05-19T10:21:38.723Z,39.89
2023-05-19T10:22:45.232Z,39.71
2023-05-19T10:23:50.258Z,39.79
2023-05-19T10:24:54.841Z,39.79
2023-05-19T10:26:01.052Z,39.93
2023-05-19T10:27:08.190Z,40.19
2023-05-19T10:28:17.114Z,40.77
2023-05-19T10:29:24.683Z,40.96
2023-05-19T10:30:30.434Z,41.19
2023-05-19T10:31:34.911Z,41.23
2023-05-19T10:32:40.663Z,41.11
2023-05-19T10:34:18.383Z,41.15
2023-05-19T10:35:44.584Z,41.21
2023-05-19T10:36:51.846Z,41.42
2023-05-19T10:38:18.956Z,41.55
2023-05-19T10:40:59.647Z,41.68
2023-05-19T10:42:16.731Z,41.56
2023-05-19T10:43:34.175Z,41.19
2023-05-19T10:44:57.630Z,41.15
2023-05-19T10:46:02.760Z,40.89
2023-05-19T10:47:10.574Z,41.08
2023-05-19T10:48:18.973Z,40.87
2023-05-19T10:49:24.609Z,40.94
2023-05-19T10:50:29.202Z,40.86
2023-05-19T10:51:33.837Z,41.13
2023-05-19T10:52:43.098Z,41.28
2023-05-19T10:53:48.318Z,41.66
2023-05-19T10:54:55.041Z,41.60
2023-05-19T10:57:10.543Z,41.60
2023-05-19T10:58:15.126Z,41.51
2023-05-19T10:59:33.899Z,41.71
2023-05-19T11:00:38.815Z,41.53
2023-05-19T11:01:44.010Z,41.24
2023-05-19T11:02:49.660Z,41.44
2023-05-19T11:03:56.243Z,41.75
2023-05-19T11:06:30.661Z,42.07
2023-05-19T11:07:35.050Z,42.99
2023-05-19T11:08:37.603Z,42.84
2023-05-19T11:09:44.870Z,43.00
2023-05-19T11:10:50.116Z,42.75
2023-05-19T11:11:53.702Z,42.95
2023-05-19T11:12:59.395Z,43.60
2023-05-19T11:14:04.730Z,43.92
2023-05-19T11:15:17.845Z,44.17
2023-05-19T11:16:31.225Z,43.99
2023-05-19T11:17:36.452Z,44.01
2023-05-19T11:18:41.688Z,44.54
2023-05-19T11:19:59.236Z,44.55
2023-05-19T11:21:04.620Z,44.24
2023-05-19T11:22:14.619Z,43.87
2023-05-19T11:23:16.994Z,44.00
2023-05-19T11:24:40.830Z,44.75
2023-05-19T11:25:51.225Z,44.96
2023-05-19T11:26:54.333Z,44.32
2023-05-19T11:27:59.138Z,44.47
2023-05-19T11:29:01.486Z,45.03
2023-05-19T11:30:11.780Z,45.08
2023-05-19T11:35:29.636Z,45.22
2023-05-19T11:36:32.114Z,45.31
2023-05-19T11:37:34.595Z,46.11
2023-05-19T11:38:36.983Z,46.18
2023-05-19T11:39:42.864Z,46.28
2023-05-19T11:40:46.483Z,46.34
2023-05-19T11:41:53.385Z,46.11
2023-05-19T11:42:58.381Z,45.46
2023-05-19T11:44:03.139Z,44.48
2023-05-19T11:45:08.434Z,44.62
2023-05-19T11:46:13.319Z,44.85
2023-05-19T11:47:19.355Z,44.40
2023-05-19T11:48:24.184Z,44.24
2023-05-19T11:49:31.545Z,44.22
2023-05-19T11:50:36.216Z,44.59
2023-05-19T11:51:41.379Z,44.78
2023-05-19T11:52:49.459Z,44.73
2023-05-19T11:53:54.556Z,44.67
2023-05-19T11:55:01.627Z,44.87
2023-05-19T11:56:04.287Z,44.67
2023-05-19T11:58:18.105Z,43.58
2023-05-19T11:59:24.753Z,43.40
2023-05-19T12:00:33.683Z,43.80
2023-05-19T12:01:38.329Z,43.65
2023-05-19T12:02:43.008Z,43.62
2023-05-19T12:03:48.392Z,43.23
2023-05-19T12:04:54.318Z,43.17
2023-05-19T12:05:59.180Z,43.17
2023-05-19T12:07:01.739Z,43.09
2023-05-19T12:09:28.334Z,43.14
2023-05-19T12:10:30.961Z,43.31
2023-05-19T12:11:35.362Z,43.52
2023-05-19T12:12:37.825Z,43.66
2023-05-19T12:13:42.255Z,43.93
2023-05-19T12:14:49.019Z,44.35
2023-05-19T12:15:54.644Z,44.85
2023-05-19T12:16:57.227Z,44.98
2023-05-19T12:18:02.991Z,45.05
2023-05-19T12:19:10.136Z,45.46
2023-05-19T12:20:20.984Z,45.62
2023-05-19T12:21:34.011Z,45.51
2023-05-19T12:22:32.225Z,45.92
2023-05-19T12:23:36.941Z,46.06
2023-05-19T12:24:42.134Z,46.83
2023-05-19T12:25:47.279Z,46.61
2023-05-19T12:26:52.016Z,46.65
2023-05-19T12:28:00.862Z,46.48
2023-05-19T12:29:10.357Z,45.69
2023-05-19T12:30:15.989Z,45.62
2023-05-19T12:31:18.793Z,45.28
2023-05-19T12:33:38.518Z,45.91
2023-05-19T12:34:42.889Z,46.56
2023-05-19T12:35:47.976Z,46.74
2023-05-19T12:36:53.059Z,47.10
2023-05-19T12:37:56.080Z,47.01
2023-05-19T12:39:01.319Z,46.54
2023-05-19T12:40:16.867Z,46.23
2023-05-19T12:41:19.372Z,46.12
2023-05-19T12:42:24.748Z,46.19
2023-05-19T12:43:29.337Z,46.02
2023-05-19T12:44:34.393Z,46.23
2023-05-19T12:45:39.715Z,46.28
2023-05-19T12:46:44.921Z,46.15
2023-05-19T12:47:48.698Z,46.40
2023-05-19T12:48:54.055Z,46.16
2023-05-19T12:50:05.392Z,46.62
2023-05-19T12:51:10.430Z,46.63
2023-05-19T12:52:16.414Z,47.07
2023-05-19T12:53:20.914Z,47.39
2023-05-19T12:54:26.186Z,47.42
2023-05-19T12:55:32.002Z,47.48
2023-05-19T12:56:37.239Z,47.31
2023-05-19T12:57:42.539Z,47.26
2023-05-19T12:58:47.218Z,46.86
2023-05-19T12:59:51.987Z,46.24
2023-05-19T13:00:57.855Z,46.03
2023-05-19T13:02:02.766Z,46.47
2023-05-19T13:03:10.214Z,46.83
2023-05-19T13:04:14.753Z,46.99
2023-05-19T13:05:20.796Z,47.22
2023-05-19T13:06:25.466Z,47.60
2023-05-19T13:07:28.174Z,47.77
2023-05-19T13:08:32.621Z,47.55
2023-05-19T13:09:37.516Z,48.05
2023-05-19T13:10:44.582Z,47.96
2023-05-19T13:11:49.685Z,48.54
2023-05-19T13:12:53.712Z,48.24
2023-05-19T13:13:59.437Z,48.35
2023-05-19T13:15:04.180Z,48.60
2023-05-19T13:16:08.310Z,48.34
2023-05-19T13:17:12.700Z,48.40
2023-05-19T13:18:17.808Z,49.34
2023-05-19T13:19:25.693Z,49.57
2023-05-19T13:20:29.900Z,49.31
2023-05-19T13:21:37.728Z,49.00
2023-05-19T13:22:42.298Z,49.11
2023-05-19T13:23:46.971Z,48.92
2023-05-19T13:24:52.082Z,48.89
2023-05-19T13:25:56.909Z,49.01
2023-05-19T13:27:01.497Z,48.96
2023-05-19T13:28:06.593Z,48.76
2023-05-19T13:29:11.283Z,48.69
2023-05-19T13:30:15.507Z,48.85
2023-05-19T13:31:21.706Z,48.81
2023-05-19T13:32:27.469Z,48.67
2023-05-19T13:33:29.784Z,48.66
2023-05-19T13:34:34.981Z,48.93
2023-05-19T13:35:39.520Z,49.91
2023-05-19T13:36:44.193Z,49.75
2023-05-19T13:37:49.251Z,50.48
2023-05-19T13:38:54.149Z,51.08
2023-05-19T13:39:59.339Z,51.17
2023-05-19T13:41:04.120Z,51.21
2023-05-19T13:42:09.345Z,51.18
2023-05-19T13:43:14.425Z,51.08
2023-05-19T13:44:19.773Z,51.08
2023-05-19T13:45:24.487Z,51.26
2023-05-19T13:46:40.735Z,51.41
2023-05-19T13:47:36.350Z,52.25
2023-05-19T13:48:41.125Z,52.56
2023-05-19T13:49:46.542Z,52.76
2023-05-19T13:50:51.872Z,52.93
2023-05-19T13:52:00.122Z,52.94
2023-05-19T13:53:05.085Z,53.08
2023-05-19T13:54:10.255Z,53.19
2023-05-19T13:55:15.711Z,53.21
2023-05-19T13:56:20.459Z,53.09
2023-05-19T13:57:26.142Z,53.02
2023-05-19T13:58:31.662Z,52.80
2023-05-19T13:59:43.112Z,52.71
2023-05-19T14:00:43.385Z,52.81
2023-05-19T14:01:48.504Z,52.93
2023-05-19T14:02:53.752Z,53.12
2023-05-19T14:03:58.170Z,53.17
2023-05-19T14:05:03.452Z,53.05
2023-05-19T14:06:08.611Z,52.82
2023-05-19T14:07:13.776Z,53.10
2023-05-19T14:08:18.418Z,53.36
2023-05-19T14:09:23.232Z,53.59
2023-05-19T14:10:27.976Z,53.93
2023-05-19T14:11:33.168Z,54.10
2023-05-19T14:12:54.986Z,54.11
2023-05-19T14:13:44.241Z,54.25
2023-05-19T14:14:49.326Z,54.44
2023-05-19T14:15:54.675Z,54.25
2023-05-19T14:16:59.823Z,54.34
2023-05-19T14:18:05.068Z,54.97
2023-05-19T14:19:10.911Z,54.74
2023-05-19T14:20:16.175Z,54.78
2023-05-19T14:21:18.901Z,54.82
2023-05-19T14:22:24.248Z,54.92
2023-05-19T14:23:29.173Z,55.18
2023-05-19T14:24:34.174Z,55.01
2023-05-19T14:25:39.008Z,55.13
2023-05-19T14:26:44.316Z,55.38
2023-05-19T14:27:49.024Z,55.20
2023-05-19T14:28:53.507Z,55.00
2023-05-19T14:29:58.758Z,54.83
2023-05-19T14:31:00.973Z,54.91
2023-05-19T14:32:05.286Z,55.08
2023-05-19T14:33:11.641Z,55.20
2023-05-19T14:34:17.049Z,55.13
2023-05-19T14:35:22.804Z,55.15
2023-05-19T14:36:27.584Z,55.22
2023-05-19T14:37:32.821Z,55.76
2023-05-19T14:38:37.873Z,55.64
2023-05-19T14:39:42.558Z,55.59
2023-05-19T14:40:47.439Z,55.53
2023-05-19T14:41:49.742Z,55.53
2023-05-19T14:42:54.304Z,55.28
2023-05-19T14:43:59.418Z,55.24
2023-05-19T14:45:04.069Z,55.56
2023-05-19T14:46:08.886Z,55.79
2023-05-19T14:47:13.579Z,55.77
2023-05-19T14:48:18.722Z,55.93
2023-05-19T14:49:23.535Z,55.94
2023-05-19T14:50:30.550Z,55.94
2023-05-19T14:51:36.330Z,55.85
2023-05-19T14:52:40.974Z,55.88
2023-05-19T14:53:48.049Z,55.80
2023-05-19T14:54:52.468Z,55.66
2023-05-19T14:55:57.598Z,55.57
2023-05-19T14:57:02.927Z,55.57
2023-05-19T14:58:16.253Z,55.71
2023-05-19T14:59:14.632Z,55.69
2023-05-19T15:00:20.296Z,55.72
2023-05-19T15:01:25.559Z,55.64
2023-05-19T15:02:30.693Z,55.64
2023-05-19T15:03:35.830Z,55.60
2023-05-19T15:05:56.442Z,55.41
2023-05-19T15:08:48.068Z,55.54
2023-05-19T15:10:06.952Z,56.05
2023-05-19T15:11:11.503Z,56.13
2023-05-19T15:12:16.132Z,56.24
2023-05-19T15:13:20.774Z,56.31
2023-05-19T15:14:27.107Z,56.34
2023-05-19T15:15:32.385Z,56.38
2023-05-19T15:16:37.260Z,56.89
2023-05-19T15:17:41.767Z,56.94
2023-05-19T15:18:46.028Z,57.13
2023-05-19T15:19:50.885Z,57.23
2023-05-19T15:20:55.534Z,57.26
2023-05-19T15:22:00.501Z,57.17
2023-05-19T15:23:03.237Z,57.35
2023-05-19T15:24:08.566Z,57.35
2023-05-19T15:25:13.679Z,57.25
2023-05-19T15:26:18.695Z,57.42
2023-05-19T15:27:23.946Z,57.52
2023-05-19T15:28:28.453Z,57.69
2023-05-19T15:29:33.069Z,57.42
2023-05-19T15:30:37.771Z,57.27
2023-05-19T15:31:42.925Z,57.32
2023-05-19T15:32:47.576Z,57.42
2023-05-19T15:33:52.378Z,57.42
2023-05-19T15:34:56.845Z,57.49
2023-05-19T15:36:02.084Z,57.40
2023-05-19T15:37:08.184Z,57.41
2023-05-19T15:38:12.974Z,57.25
2023-05-19T15:39:17.997Z,57.20
2023-05-19T15:40:23.190Z,57.18
2023-05-19T15:41:28.367Z,57.15
2023-05-19T15:42:33.639Z,57.07
2023-05-19T15:43:38.302Z,57.10
2023-05-19T15:44:43.506Z,57.01
2023-05-19T15:45:48.522Z,57.01
2023-05-19T15:46:53.293Z,56.94
2023-05-19T15:47:58.538Z,56.85
2023-05-19T15:49:03.083Z,56.74
2023-05-19T15:50:08.029Z,56.63
2023-05-19T15:51:12.556Z,56.63
2023-05-19T15:52:17.684Z,56.60
2023-05-19T15:53:22.875Z,56.50
2023-05-19T15:54:27.978Z,56.55
2023-05-19T15:55:32.481Z,56.55
2023-05-19T15:56:37.790Z,56.63
2023-05-19T15:57:42.477Z,56.57
2023-05-19T15:58:45.389Z,56.65
2023-05-19T15:59:49.776Z,56.58
2023-05-19T16:00:55.035Z,56.48
2023-05-19T16:01:59.283Z,56.46
2023-05-19T16:03:03.984Z,56.42
2023-05-19T16:04:09.301Z,56.44
2023-05-19T16:05:13.844Z,56.44
2023-05-19T16:06:19.368Z,56.32
2023-05-19T16:07:24.100Z,56.34
2023-05-19T16:08:29.171Z,56.33
2023-05-19T16:09:34.321Z,56.25
2023-05-19T16:10:38.888Z,56.35
2023-05-19T16:11:43.902Z,56.32
2023-05-19T16:12:48.992Z,56.25
2023-05-19T16:13:53.669Z,56.46
2023-05-19T16:14:58.344Z,56.47
2023-05-19T16:16:03.009Z,56.49
2023-05-19T16:17:07.852Z,56.63
2023-05-19T16:18:13.251Z,56.72
2023-05-19T16:19:18.312Z,56.76
2023-05-19T16:20:24.125Z,56.78
2023-05-19T16:21:29.379Z,56.96
2023-05-19T16:22:34.669Z,56.96
2023-05-19T16:23:39.992Z,56.89
2023-05-19T16:24:45.143Z,56.92
2023-05-19T16:25:51.355Z,56.81
2023-05-19T16:26:56.009Z,56.65
2023-05-19T16:28:00.742Z,56.64
2023-05-19T16:29:05.408Z,56.67
2023-05-19T16:30:12.151Z,56.68
2023-05-19T16:31:17.183Z,56.38
2023-05-19T16:32:22.254Z,56.25
2023-05-19T16:33:28.227Z,56.00
2023-05-19T16:34:32.787Z,55.68
2023-05-19T16:35:37.384Z,55.47
2023-05-19T16:36:42.743Z,55.24
2023-05-19T16:37:47.522Z,54.93
2023-05-19T16:38:51.988Z,54.79
2023-05-19T16:39:57.272Z,54.74
2023-05-19T16:41:00.897Z,54.65
2023-05-19T16:42:06.469Z,54.88
2023-05-19T16:43:11.201Z,55.14
2023-05-19T16:44:16.358Z,55.35
2023-05-19T16:45:21.514Z,55.52
2023-05-19T16:46:27.880Z,55.77
2023-05-19T16:47:33.641Z,56.03
2023-05-19T16:48:38.291Z,56.36
2023-05-19T16:49:43.306Z,56.53
2023-05-19T16:50:47.888Z,56.71
2023-05-19T16:51:52.652Z,56.81
2023-05-19T16:52:57.963Z,56.88
2023-05-19T16:54:03.118Z,57.11
2023-05-19T16:55:09.089Z,57.64
2023-05-19T16:56:14.463Z,57.69
2023-05-19T16:57:18.988Z,57.83
2023-05-19T16:58:24.636Z,58.03
2023-05-19T16:59:29.498Z,58.00
2023-05-19T17:00:34.667Z,58.08
2023-05-19T17:01:39.870Z,58.12
2023-05-19T17:02:45.502Z,58.15
2023-05-19T17:03:50.630Z,58.11
2023-05-19T17:04:55.750Z,58.26
2023-05-19T17:06:00.708Z,58.33
2023-05-19T17:07:05.843Z,58.46
2023-05-19T17:08:10.168Z,58.35
2023-05-19T17:09:14.849Z,58.29
2023-05-19T17:10:21.587Z,58.36
2023-05-19T17:17:10.807Z,58.89
2023-05-19T17:18:16.251Z,59.03
2023-05-19T17:19:21.485Z,59.07
2023-05-19T17:20:26.220Z,59.07
2023-05-19T17:21:31.553Z,59.08
2023-05-19T17:22:36.386Z,59.27
2023-05-19T17:23:41.820Z,59.36
2023-05-19T17:24:45.837Z,59.46
2023-05-19T17:25:50.087Z,59.46
2023-05-19T17:26:54.889Z,59.49
2023-05-19T17:27:59.859Z,59.51
2023-05-19T17:29:05.100Z,59.52
2023-05-19T17:30:15.426Z,59.70
2023-05-19T17:31:20.462Z,59.72
2023-05-19T17:32:25.929Z,59.68
2023-05-19T17:33:30.508Z,59.73
2023-05-19T17:34:35.015Z,59.72
2023-05-19T17:35:40.090Z,59.71
2023-05-19T17:37:49.391Z,59.79
2023-05-19T17:38:53.973Z,59.85
2023-05-19T17:39:58.558Z,59.79
2023-05-19T17:41:03.995Z,59.79
2023-05-19T17:42:09.347Z,59.75
2023-05-19T17:43:14.492Z,59.80
2023-05-19T17:44:19.178Z,59.81
2023-05-19T17:45:23.509Z,59.87
2023-05-19T17:46:28.163Z,59.91
2023-05-19T17:47:32.847Z,59.85
2023-05-19T17:48:37.552Z,59.91
2023-05-19T17:49:42.890Z,59.91
2023-05-19T17:51:56.887Z,60.23
2023-05-19T17:53:02.677Z,60.29
2023-05-19T17:54:08.092Z,60.33
2023-05-19T17:55:14.021Z,60.38
2023-05-19T17:56:19.068Z,60.40
2023-05-19T17:57:23.909Z,60.44
2023-05-19T17:58:29.761Z,60.47
2023-05-19T17:59:36.775Z,60.57
2023-05-19T18:00:42.610Z,60.65
2023-05-19T18:01:47.954Z,60.65
2023-05-19T18:02:53.926Z,60.76
2023-05-19T18:03:58.260Z,60.91
2023-05-19T18:05:04.123Z,60.94
2023-05-19T18:06:08.963Z,61.05
2023-05-19T18:07:14.163Z,61.13
2023-05-19T18:08:19.686Z,61.18
2023-05-19T18:09:28.594Z,61.25
2023-05-19T18:10:32.449Z,61.23
2023-05-19T18:11:37.729Z,61.27
2023-05-19T18:12:42.190Z,61.31
2023-05-19T18:13:47.433Z,61.40
2023-05-19T18:14:52.683Z,61.46
2023-05-19T18:15:57.908Z,61.59
2023-05-19T18:17:00.261Z,61.72
2023-05-19T18:18:05.929Z,61.79
2023-05-19T18:19:11.443Z,61.72
2023-05-19T18:20:20.111Z,61.75
2023-05-19T18:21:25.176Z,61.74
2023-05-19T18:22:30.215Z,61.78
2023-05-19T18:23:34.833Z,61.63
2023-05-19T18:24:37.236Z,61.65
2023-05-19T18:25:41.786Z,61.71
2023-05-19T18:26:46.718Z,61.74
2023-05-19T18:27:51.732Z,61.72
2023-05-19T18:28:56.738Z,61.59
2023-05-19T18:30:01.645Z,61.54
2023-05-19T18:31:05.397Z,61.60
2023-05-19T18:32:12.222Z,61.70
2023-05-19T18:33:16.732Z,61.62
2023-05-19T18:34:21.182Z,61.67
2023-05-19T18:35:25.818Z,61.60
2023-05-19T18:36:31.595Z,61.52
2023-05-19T18:37:36.728Z,61.38
2023-05-19T18:38:42.311Z,61.44
2023-05-19T18:39:46.946Z,61.46
2023-05-19T18:40:54.680Z,61.44
2023-05-19T18:41:59.728Z,61.40
2023-05-19T18:43:04.316Z,61.34
2023-05-19T18:44:09.326Z,61.30
2023-05-19T18:45:15.003Z,61.32
2023-05-19T18:46:21.928Z,61.29
2023-05-19T18:47:26.251Z,61.34
2023-05-19T18:48:29.142Z,61.33
2023-05-19T18:49:33.688Z,61.34
2023-05-19T18:50:38.122Z,61.29
2023-05-19T18:51:42.442Z,61.38
2023-05-19T18:52:47.394Z,61.35
2023-05-19T18:53:52.123Z,61.35
2023-05-19T18:54:57.056Z,61.41
2023-05-19T18:56:01.618Z,61.39
2023-05-19T18:57:07.947Z,61.40
2023-05-19T18:58:12.686Z,61.41
2023-05-19T18:59:17.996Z,61.39
2023-05-19T19:00:23.209Z,61.35
2023-05-19T19:01:28.729Z,61.36
2023-05-19T19:02:33.192Z,61.33
2023-05-19T19:03:37.855Z,61.33
2023-05-19T19:04:43.060Z,61.37
2023-05-19T19:05:47.614Z,61.35
2023-05-19T19:06:52.155Z,61.36
2023-05-19T19:07:56.709Z,61.37
2023-05-19T19:09:01.960Z,61.39
2023-05-19T19:10:08.392Z,61.41
2023-05-19T19:11:13.546Z,61.43
2023-05-19T19:12:20.307Z,61.42
2023-05-19T19:13:24.927Z,61.43
2023-05-19T19:14:29.946Z,61.45
2023-05-19T19:15:34.496Z,61.48
2023-05-19T19:16:39.653Z,61.51
2023-05-19T19:17:44.846Z,61.53
2023-05-19T19:18:50.110Z,61.60
2023-05-19T19:19:55.028Z,61.58
2023-05-19T19:21:00.394Z,61.72
2023-05-19T19:22:05.720Z,61.75
2023-05-19T19:23:10.968Z,61.81
2023-05-19T19:24:16.069Z,61.82
2023-05-19T19:25:23.435Z,61.86
2023-05-19T19:26:28.970Z,61.89
2023-05-19T19:27:33.876Z,61.95
2023-05-19T19:28:38.479Z,61.97
2023-05-19T19:29:43.777Z,62.11
2023-05-19T19:30:49.105Z,62.09
2023-05-19T19:31:53.668Z,62.17
2023-05-19T19:32:59.033Z,62.25
2023-05-19T19:34:04.159Z,62.33
2023-05-19T19:35:09.552Z,62.44
2023-05-19T19:36:14.714Z,62.47
2023-05-19T19:37:19.407Z,62.58
2023-05-19T19:38:24.215Z,62.63
2023-05-19T19:39:28.807Z,62.69
2023-05-19T19:40:34.058Z,62.77
2023-05-19T19:41:38.559Z,62.81
2023-05-19T19:42:43.637Z,62.84
2023-05-19T19:43:48.781Z,62.89
2023-05-19T19:44:55.932Z,62.90
2023-05-19T19:47:10.456Z,62.98
2023-05-19T19:48:15.478Z,63.06
2023-05-19T19:49:20.643Z,63.08
2023-05-19T19:50:25.322Z,63.08
2023-05-19T19:51:28.596Z,62.99
2023-05-19T19:52:34.197Z,63.02
2023-05-19T19:53:38.739Z,62.99
2023-05-19T19:54:43.564Z,62.97
2023-05-19T19:55:48.581Z,63.00
2023-05-19T19:56:53.377Z,63.07
2023-05-19T19:57:58.080Z,63.10
2023-05-19T19:59:03.317Z,63.13
2023-05-19T20:00:09.672Z,63.15
2023-05-19T20:01:14.893Z,63.22
2023-05-19T20:02:19.729Z,63.28
2023-05-19T20:03:24.269Z,63.31
2023-05-19T20:04:29.539Z,63.36
2023-05-19T20:05:34.505Z,63.37
2023-05-19T20:06:39.209Z,63.44
2023-05-19T20:07:44.317Z,63.41
2023-05-19T20:08:48.937Z,63.42
2023-05-19T20:09:54.300Z,63.47
2023-05-19T20:10:58.892Z,63.47
2023-05-19T20:12:03.419Z,63.45
2023-05-19T20:13:08.624Z,63.53
2023-05-19T20:14:13.631Z,63.55
2023-05-19T20:15:18.974Z,63.62
2023-05-19T20:16:24.445Z,63.71
2023-05-19T20:17:28.853Z,63.70
2023-05-19T20:18:34.987Z,63.72
2023-05-19T20:19:39.557Z,63.73
2023-05-19T20:20:44.737Z,63.73
2023-05-19T20:21:49.346Z,63.82
2023-05-19T20:22:54.142Z,63.87
2023-05-19T20:23:58.789Z,63.86
2023-05-19T20:25:03.654Z,63.94
2023-05-19T20:26:13.150Z,63.96
2023-05-19T20:27:15.273Z,63.97
2023-05-19T20:28:21.267Z,63.99
2023-05-19T20:29:26.774Z,64.02
2023-05-19T20:30:31.447Z,64.10
2023-05-19T20:31:36.518Z,64.15
2023-05-19T20:32:41.114Z,64.18
2023-05-19T20:33:46.519Z,64.19
2023-05-19T20:34:51.561Z,64.20
2023-05-19T20:35:56.123Z,64.23
2023-05-19T20:37:00.930Z,64.31
2023-05-19T20:38:06.080Z,64.32
2023-05-19T20:39:11.116Z,64.34
2023-05-19T20:40:16.419Z,64.35
2023-05-19T20:45:54.132Z,64.14
2023-05-19T20:46:56.770Z,63.96
2023-05-19T20:48:01.916Z,64.05
2023-05-19T20:49:06.852Z,64.09
2023-05-19T20:50:12.371Z,64.14
2023-05-19T20:51:16.889Z,64.17
2023-05-19T20:52:22.010Z,64.18
2023-05-19T20:53:27.028Z,64.19